Time;durP1;ratioP1;P1;durP2;ratioP2;P2;SDS_P1;SDS_P2;PMS_P1;PMS_P2;Temp;Humidity;BMP_temperature;BMP_pressure;BME280_temperature;BME280_humidity;BME280_pressure;Samples;Min_cycle;Max_cycle;Signal;HPM_P1;HPM_P2
2023/02/26 00:00:31;;;;;;;2.10;1.60;;;14.70;64.20;;;;;;5075420;28;20189;-46
2023/02/26 00:02:58;;;;;;;2.13;1.70;;;14.70;64.30;;;;;;5076998;28;20193;-46
2023/02/26 00:05:27;;;;;;;1.70;1.40;;;14.70;64.30;;;;;;5065088;28;20205;-46
2023/02/26 00:08:00;;;;;;;3.50;1.77;;;14.70;64.40;;;;;;5038191;28;20200;-46
2023/02/26 00:10:32;;;;;;;2.63;1.50;;;14.70;64.50;;;;;;5065896;28;20182;-47
2023/02/26 00:13:03;;;;;;;2.03;1.53;;;14.70;64.50;;;;;;5068979;28;20228;-46
2023/02/26 00:15:35;;;;;;;2.37;1.70;;;14.70;64.40;;;;;;5069194;28;20538;-46
2023/02/26 00:18:09;;;;;;;2.30;1.40;;;14.70;64.50;;;;;;5066319;28;20649;-46
2023/02/26 00:20:46;;;;;;;1.63;1.10;;;14.70;64.50;;;;;;5069398;28;20190;-46
2023/02/26 00:23:23;;;;;;;2.57;1.47;;;14.70;64.60;;;;;;5069887;28;20194;-46
2023/02/26 00:25:57;;;;;;;2.33;1.13;;;14.70;64.70;;;;;;5076233;28;20687;-46
2023/02/26 00:28:27;;;;;;;3.60;1.70;;;14.60;64.60;;;;;;5041105;28;20658;-46
2023/02/26 00:30:58;;;;;;;2.43;1.33;;;14.60;64.70;;;;;;5051654;28;20210;-46
2023/02/26 00:33:29;;;;;;;1.83;1.33;;;14.70;64.70;;;;;;5086590;28;20224;-46
2023/02/26 00:36:13;;;;;;;3.50;1.60;;;14.60;64.80;;;;;;5092629;28;20245;-46
2023/02/26 00:38:45;;;;;;;2.33;1.33;;;14.60;64.70;;;;;;5088268;28;20189;-47
2023/02/26 00:41:17;;;;;;;2.63;1.43;;;14.60;64.80;;;;;;5068649;28;20220;-46
2023/02/26 00:43:48;;;;;;;2.97;1.70;;;14.60;64.70;;;;;;5098093;28;20538;-46
2023/02/26 00:46:55;;;;;;;2.93;1.60;;;14.60;64.80;;;;;;5085098;28;20197;-46
2023/02/26 00:49:30;;;;;;;1.77;1.30;;;14.60;64.90;;;;;;5069524;28;20265;-46
2023/02/26 00:52:09;;;;;;;3.07;1.70;;;14.60;64.80;;;;;;5069604;28;20383;-46
2023/02/26 00:54:37;;;;;;;2.13;1.33;;;14.60;64.80;;;;;;5054694;28;20630;-46
2023/02/26 00:57:05;;;;;;;3.30;1.57;;;14.60;64.90;;;;;;5063876;28;20231;-46
2023/02/26 00:59:36;;;;;;;3.27;1.70;;;14.60;64.80;;;;;;5084342;28;20543;-46
2023/02/26 01:02:06;;;;;;;2.13;1.43;;;14.60;64.70;;;;;;5089029;28;20700;-47
2023/02/26 01:04:35;;;;;;;3.53;1.60;;;14.60;64.80;;;;;;5074852;28;20270;-47
2023/02/26 01:07:05;;;;;;;3.67;1.70;;;14.60;65.00;;;;;;5043775;28;20707;-47
2023/02/26 01:09:41;;;;;;;3.87;1.80;;;14.60;64.90;;;;;;5066682;28;20205;-46
2023/02/26 01:12:12;;;;;;;1.90;1.50;;;14.60;64.70;;;;;;5082685;28;20197;-46
2023/02/26 01:14:42;;;;;;;3.07;1.50;;;14.60;64.80;;;;;;5070192;28;20212;-46
2023/02/26 01:17:55;;;;;;;4.03;1.70;;;14.50;64.80;;;;;;5078746;28;20197;-47
2023/02/26 01:20:27;;;;;;;2.83;1.60;;;14.60;64.80;;;;;;5055414;28;20234;-46
2023/02/26 01:23:05;;;;;;;2.47;1.27;;;14.60;64.80;;;;;;5069933;28;20213;-46
2023/02/26 01:26:14;;;;;;;4.87;1.77;;;14.50;64.80;;;;;;5069808;28;20185;-46
2023/02/26 01:28:43;;;;;;;3.87;1.93;;;14.50;64.70;;;;;;5093965;28;20336;-47
2023/02/26 01:31:31;;;;;;;2.37;2.17;;;14.50;64.80;;;;;;5081215;28;20614;-47
2023/02/26 01:34:56;;;;;;;2.73;1.50;;;14.50;64.90;;;;;;5051849;28;20267;-46
2023/02/26 01:37:54;;;;;;;2.50;1.63;;;14.50;64.90;;;;;;5054851;28;20260;-46
2023/02/26 01:40:40;;;;;;;2.77;1.70;;;14.50;64.70;;;;;;5059141;28;20219;-47
2023/02/26 01:43:36;;;;;;;2.63;1.70;;;14.50;64.90;;;;;;5059703;28;20233;-46
2023/02/26 01:46:38;;;;;;;1.77;1.40;;;14.50;64.90;;;;;;5066280;28;20212;-46
2023/02/26 01:49:20;;;;;;;2.23;1.27;;;14.50;64.80;;;;;;5058443;28;20631;-46
2023/02/26 01:51:59;;;;;;;2.17;1.20;;;14.40;64.90;;;;;;5046831;28;20428;-47
2023/02/26 01:54:38;;;;;;;2.77;1.20;;;14.50;64.90;;;;;;5064063;28;20198;-47
2023/02/26 01:57:11;;;;;;;4.33;1.30;;;14.50;64.70;;;;;;5067815;28;20237;-46
2023/02/26 01:59:52;;;;;;;2.03;1.47;;;14.50;64.70;;;;;;5038251;28;20201;-46
2023/02/26 02:02:24;;;;;;;2.40;1.23;;;14.50;64.70;;;;;;5068398;28;20227;-46
2023/02/26 02:05:01;;;;;;;2.40;1.30;;;14.50;64.50;;;;;;5061326;28;20224;-46
2023/02/26 02:07:32;;;;;;;2.70;1.63;;;14.50;64.60;;;;;;5067680;28;20220;-46
2023/02/26 02:10:09;;;;;;;1.80;1.30;;;14.40;64.60;;;;;;5062046;28;20197;-46
2023/02/26 02:13:05;;;;;;;1.73;1.63;;;14.50;64.70;;;;;;5070671;28;20196;-47
2023/02/26 02:16:03;;;;;;;1.70;1.13;;;14.50;64.60;;;;;;5070878;28;20189;-46
2023/02/26 02:19:09;;;;;;;3.33;1.83;;;14.50;64.70;;;;;;5058173;28;20214;-46
2023/02/26 02:22:17;;;;;;;3.13;1.97;;;14.50;64.90;;;;;;5069960;28;20225;-46
2023/02/26 02:25:34;;;;;;;2.90;1.60;;;14.50;64.70;;;;;;5070504;28;20565;-46
2023/02/26 02:28:35;;;;;;;2.20;1.40;;;14.40;64.70;;;;;;5007922;28;20196;-46
2023/02/26 02:31:16;;;;;;;2.23;1.40;;;14.40;64.70;;;;;;5068183;28;20208;-46
2023/02/26 02:34:10;;;;;;;2.57;1.27;;;14.40;64.70;;;;;;5069630;28;20229;-46
2023/02/26 02:37:16;;;;;;;3.27;1.70;;;14.40;64.70;;;;;;5052743;28;20194;-46
2023/02/26 02:40:23;;;;;;;2.33;1.60;;;14.40;64.70;;;;;;5058320;28;20211;-46
2023/02/26 02:43:08;;;;;;;2.50;1.60;;;14.40;64.90;;;;;;5058369;28;20562;-46
2023/02/26 02:45:55;;;;;;;7.60;1.87;;;14.40;64.90;;;;;;5042028;28;20239;-46
2023/02/26 02:48:40;;;;;;;2.60;1.77;;;14.40;64.70;;;;;;5049253;28;20190;-47
2023/02/26 02:51:21;;;;;;;2.57;1.30;;;14.40;64.60;;;;;;5057393;28;20194;-47
2023/02/26 02:54:22;;;;;;;1.87;1.50;;;14.40;65.40;;;;;;5065447;28;20190;-46
2023/02/26 02:57:36;;;;;;;2.77;1.57;;;14.40;64.70;;;;;;5069911;28;20231;-46
2023/02/26 03:00:11;;;;;;;1.67;1.13;;;14.40;65.60;;;;;;5007729;28;20192;-46
2023/02/26 03:03:20;;;;;;;2.00;1.43;;;14.40;64.90;;;;;;5013274;28;20339;-46
2023/02/26 03:05:50;;;;;;;1.80;1.20;;;14.40;65.00;;;;;;5027545;28;20199;-46
2023/02/26 03:08:26;;;;;;;1.80;1.40;;;14.30;65.00;;;;;;5044322;28;20293;-46
2023/02/26 03:10:57;;;;;;;2.23;1.37;;;14.30;64.90;;;;;;5063551;28;20248;-47
2023/02/26 03:13:26;;;;;;;2.87;1.70;;;14.30;64.90;;;;;;5044200;28;20194;-46
2023/02/26 03:16:16;;;;;;;2.67;1.67;;;14.30;64.80;;;;;;5035847;28;20706;-52
2023/02/26 03:19:15;;;;;;;1.60;1.43;;;14.40;64.80;;;;;;5049710;28;20210;-46
2023/02/26 03:22:10;;;;;;;3.30;1.40;;;14.40;64.80;;;;;;5027025;28;20234;-46
2023/02/26 03:25:04;;;;;;;2.57;1.13;;;14.30;64.70;;;;;;5053406;28;20193;-46
2023/02/26 03:28:06;;;;;;;2.03;1.40;;;14.30;64.90;;;;;;5066019;28;20194;-46
2023/02/26 03:31:00;;;;;;;2.43;1.43;;;14.30;64.70;;;;;;5050403;28;20647;-46
2023/02/26 03:33:55;;;;;;;2.87;1.33;;;14.30;64.70;;;;;;5057403;28;20230;-46
2023/02/26 03:36:49;;;;;;;1.27;1.13;;;14.30;64.60;;;;;;5052651;28;20205;-47
2023/02/26 03:39:43;;;;;;;1.80;1.30;;;14.30;64.70;;;;;;5049870;28;20194;-46
2023/02/26 03:42:37;;;;;;;2.03;1.17;;;14.30;64.60;;;;;;5066340;28;20205;-46
2023/02/26 03:45:12;;;;;;;2.60;1.50;;;14.30;65.20;;;;;;5070280;28;20201;-46
2023/02/26 03:47:47;;;;;;;2.53;1.60;;;14.30;64.60;;;;;;5053694;28;20209;-46
2023/02/26 03:50:55;;;;;;;2.77;1.30;;;14.30;64.70;;;;;;5031664;28;20535;-46
2023/02/26 03:53:31;;;;;;;1.97;1.30;;;14.30;64.60;;;;;;5065385;28;20634;-46
2023/02/26 03:56:19;;;;;;;2.83;1.40;;;14.30;64.50;;;;;;5050134;28;20489;-46
2023/02/26 03:58:52;;;;;;;1.73;1.50;;;14.30;64.70;;;;;;5048982;28;20209;-46
2023/02/26 04:01:28;;;;;;;1.80;1.40;;;14.30;64.60;;;;;;5068727;28;20669;-46
2023/02/26 04:04:05;;;;;;;1.17;0.77;;;14.30;64.70;;;;;;5051982;28;20227;-47
2023/02/26 04:06:34;;;;;;;2.47;1.20;;;14.30;64.60;;;;;;5048782;28;20205;-46
2023/02/26 04:09:05;;;;;;;2.20;1.40;;;14.30;64.70;;;;;;5068457;28;20615;-46
2023/02/26 04:11:38;;;;;;;1.77;1.17;;;14.20;64.80;;;;;;5043047;28;20198;-46
2023/02/26 04:14:06;;;;;;;1.33;0.80;;;14.30;64.80;;;;;;5049775;28;20404;-46
2023/02/26 04:16:36;;;;;;;3.43;1.40;;;14.30;64.80;;;;;;5068115;28;20895;-47
2023/02/26 04:19:08;;;;;;;1.27;0.80;;;14.30;64.80;;;;;;5056612;28;20210;-46
2023/02/26 04:21:39;;;;;;;2.20;1.30;;;14.30;64.80;;;;;;5052919;28;20199;-46
2023/02/26 04:24:10;;;;;;;1.40;0.97;;;14.20;64.70;;;;;;5065024;28;20235;-46
2023/02/26 04:26:38;;;;;;;4.37;1.47;;;14.20;64.60;;;;;;5068780;28;20193;-46
2023/02/26 04:29:08;;;;;;;1.37;1.20;;;14.20;64.70;;;;;;5062537;28;20599;-46
2023/02/26 04:31:37;;;;;;;1.63;1.07;;;14.20;64.70;;;;;;5047506;28;20225;-46
2023/02/26 04:34:11;;;;;;;2.20;1.10;;;14.30;64.70;;;;;;5056945;28;20197;-46
2023/02/26 04:36:39;;;;;;;2.17;1.20;;;14.20;64.70;;;;;;5049556;28;20190;-46
2023/02/26 04:39:11;;;;;;;2.20;1.17;;;14.20;64.60;;;;;;5068732;28;20190;-46
2023/02/26 04:41:42;;;;;;;2.43;1.10;;;14.20;64.60;;;;;;5072656;28;20649;-46
2023/02/26 04:44:16;;;;;;;1.53;0.90;;;14.20;64.70;;;;;;5062190;28;20627;-46
2023/02/26 04:46:46;;;;;;;1.77;0.90;;;14.20;64.70;;;;;;5060530;28;20193;-46
2023/02/26 04:49:16;;;;;;;4.57;1.10;;;14.20;64.80;;;;;;5067598;28;20214;-46
2023/02/26 04:51:48;;;;;;;1.57;1.13;;;14.20;64.60;;;;;;5068797;28;20506;-47
2023/02/26 04:54:22;;;;;;;1.60;1.00;;;14.20;64.70;;;;;;5063944;28;20209;-46
2023/02/26 04:56:54;;;;;;;1.37;1.10;;;14.20;64.70;;;;;;5046649;28;20229;-47
2023/02/26 04:59:23;;;;;;;1.53;0.87;;;14.20;64.70;;;;;;5073501;28;20204;-47
2023/02/26 05:01:54;;;;;;;1.70;1.40;;;14.20;64.80;;;;;;5051572;28;20194;-46
2023/02/26 05:04:26;;;;;;;2.13;1.23;;;14.20;64.70;;;;;;5066658;28;20201;-46
2023/02/26 05:06:56;;;;;;;1.57;1.17;;;14.20;64.70;;;;;;5070469;28;20648;-46
2023/02/26 05:09:28;;;;;;;2.63;1.40;;;14.20;64.80;;;;;;5071973;28;20201;-46
2023/02/26 05:11:59;;;;;;;1.53;0.77;;;14.20;64.70;;;;;;5073540;28;20243;-46
2023/02/26 05:14:29;;;;;;;1.27;1.17;;;14.10;64.70;;;;;;5077486;28;20253;-46
2023/02/26 05:17:02;;;;;;;2.23;0.90;;;14.20;64.80;;;;;;5072551;28;20216;-46
2023/02/26 05:19:30;;;;;;;1.47;0.70;;;14.10;64.70;;;;;;5057241;28;20258;-46
2023/02/26 05:22:02;;;;;;;1.50;1.10;;;14.10;64.70;;;;;;5060856;28;20197;-46
2023/02/26 05:24:33;;;;;;;3.17;1.53;;;14.10;64.70;;;;;;5064263;28;20195;-46
2023/02/26 05:27:05;;;;;;;1.00;0.90;;;14.10;64.80;;;;;;5065561;28;20190;-46
2023/02/26 05:29:32;;;;;;;2.27;0.80;;;14.10;64.80;;;;;;5069363;28;20268;-46
2023/02/26 05:32:04;;;;;;;1.53;1.30;;;14.10;64.80;;;;;;5069654;28;20620;-46
2023/02/26 05:34:36;;;;;;;2.17;0.93;;;14.00;64.80;;;;;;5091373;28;20654;-46
2023/02/26 05:37:05;;;;;;;1.50;1.23;;;14.00;64.80;;;;;;5091245;28;20633;-46
2023/02/26 05:39:36;;;;;;;3.17;1.00;;;14.10;64.80;;;;;;5073167;28;20235;-46
2023/02/26 05:42:05;;;;;;;1.67;1.00;;;14.10;64.70;;;;;;5083601;28;20204;-46
2023/02/26 05:44:36;;;;;;;2.63;1.10;;;14.10;64.80;;;;;;5081014;28;20692;-47
2023/02/26 05:47:08;;;;;;;1.53;1.20;;;14.10;64.80;;;;;;5071839;28;20189;-46
2023/02/26 05:49:40;;;;;;;3.97;0.90;;;14.10;64.80;;;;;;5067379;28;20653;-46
2023/02/26 05:52:12;;;;;;;1.73;1.10;;;14.10;64.60;;;;;;5090581;28;20201;-46
2023/02/26 05:54:42;;;;;;;1.87;0.93;;;14.00;64.60;;;;;;5070897;28;20204;-46
2023/02/26 05:57:10;;;;;;;1.13;0.90;;;14.00;64.60;;;;;;5073240;28;20826;-46
2023/02/26 05:59:40;;;;;;;2.13;1.07;;;14.00;64.60;;;;;;5093306;28;20200;-46
2023/02/26 06:02:13;;;;;;;2.23;0.90;;;14.00;64.60;;;;;;5098148;28;20197;-46
2023/02/26 06:04:45;;;;;;;1.17;0.80;;;14.00;64.50;;;;;;5093744;28;20189;-46
2023/02/26 06:07:15;;;;;;;1.30;0.97;;;14.00;64.50;;;;;;5076136;28;20213;-46
2023/02/26 06:09:44;;;;;;;2.00;1.37;;;14.00;64.50;;;;;;5076761;28;20686;-46
2023/02/26 06:12:12;;;;;;;1.73;1.20;;;14.00;64.50;;;;;;5072633;28;20232;-46
2023/02/26 06:14:41;;;;;;;1.10;0.80;;;14.00;64.40;;;;;;5076816;28;20528;-46
2023/02/26 06:17:09;;;;;;;1.67;1.20;;;14.00;64.30;;;;;;5072907;28;20223;-47
2023/02/26 06:19:39;;;;;;;1.47;0.53;;;14.00;64.30;;;;;;5086898;28;20197;-46
2023/02/26 06:22:11;;;;;;;3.23;1.00;;;14.00;64.30;;;;;;5090792;28;20661;-46
2023/02/26 06:24:41;;;;;;;2.23;1.17;;;14.00;64.30;;;;;;5066220;28;20216;-47
2023/02/26 06:27:12;;;;;;;1.97;1.40;;;14.00;64.30;;;;;;5090366;28;20195;-47
2023/02/26 06:29:44;;;;;;;1.80;0.87;;;14.00;64.20;;;;;;5097226;28;20193;-47
2023/02/26 06:32:17;;;;;;;1.50;1.07;;;13.90;64.10;;;;;;5063492;28;20220;-50
2023/02/26 06:34:49;;;;;;;2.70;1.20;;;14.00;64.10;;;;;;5073900;28;20205;-46
2023/02/26 06:37:21;;;;;;;1.57;0.80;;;13.90;64.00;;;;;;5052346;28;20269;-46
2023/02/26 06:39:52;;;;;;;1.77;0.90;;;13.90;64.00;;;;;;5070614;28;20208;-47
2023/02/26 06:42:19;;;;;;;1.07;0.80;;;13.90;64.00;;;;;;5077350;28;20534;-47
2023/02/26 06:44:50;;;;;;;1.77;0.77;;;13.90;63.90;;;;;;5084005;28;20607;-46
2023/02/26 06:47:21;;;;;;;4.63;1.03;;;13.90;63.80;;;;;;5068256;28;20210;-47
2023/02/26 06:49:53;;;;;;;1.20;0.70;;;13.90;63.80;;;;;;5064058;28;20209;-46
2023/02/26 06:52:25;;;;;;;3.07;0.80;;;14.00;63.80;;;;;;5069762;28;20185;-46
2023/02/26 06:54:56;;;;;;;1.43;1.07;;;13.90;63.70;;;;;;5079315;28;20209;-46
2023/02/26 06:57:27;;;;;;;0.87;0.60;;;13.90;63.70;;;;;;5071698;28;20204;-47
2023/02/26 06:59:55;;;;;;;2.73;1.47;;;13.90;63.70;;;;;;5060272;28;20262;-46
2023/02/26 07:02:25;;;;;;;2.50;0.70;;;13.90;63.60;;;;;;5064765;28;20197;-46
2023/02/26 07:04:56;;;;;;;2.03;0.87;;;13.90;63.60;;;;;;5062024;28;20217;-47
2023/02/26 07:07:27;;;;;;;0.93;0.70;;;13.90;63.50;;;;;;5080463;28;20216;-46
2023/02/26 07:09:58;;;;;;;1.80;0.70;;;13.90;63.50;;;;;;5078112;28;20197;-46
2023/02/26 07:12:28;;;;;;;2.60;0.97;;;13.90;63.50;;;;;;5083748;28;20198;-46
2023/02/26 07:14:57;;;;;;;1.23;0.70;;;13.90;63.50;;;;;;5072660;28;20209;-47
2023/02/26 07:17:25;;;;;;;0.90;0.60;;;13.90;63.50;;;;;;5084174;28;20204;-46
2023/02/26 07:19:57;;;;;;;1.37;0.70;;;13.80;63.40;;;;;;5071053;28;20635;-46
2023/02/26 07:22:27;;;;;;;1.47;1.00;;;13.90;63.50;;;;;;5076379;28;20197;-46
2023/02/26 07:24:59;;;;;;;2.10;0.67;;;13.90;63.40;;;;;;5087919;28;20182;-46
2023/02/26 07:27:32;;;;;;;2.37;1.20;;;14.00;63.40;;;;;;5071875;28;20202;-46
2023/02/26 07:30:07;;;;;;;1.03;0.80;;;13.90;63.30;;;;;;5071255;28;20193;-46
2023/02/26 07:32:43;;;;;;;0.97;0.80;;;13.90;63.30;;;;;;4932794;28;3614431;-46
2023/02/26 07:35:12;;;;;;;2.37;1.10;;;14.00;63.30;;;;;;5065581;28;20683;-46
2023/02/26 07:37:54;;;;;;;0.83;0.63;;;13.90;63.10;;;;;;5069547;28;20213;-46
2023/02/26 07:40:25;;;;;;;1.30;0.80;;;13.90;63.10;;;;;;5065837;28;20193;-46
2023/02/26 07:42:58;;;;;;;1.50;0.97;;;13.90;63.20;;;;;;5067094;28;20233;-46
2023/02/26 07:45:30;;;;;;;1.10;0.77;;;13.90;63.20;;;;;;5072392;28;20219;-46
2023/02/26 07:47:59;;;;;;;1.07;0.70;;;13.90;63.30;;;;;;5070131;28;20205;-46
2023/02/26 07:50:28;;;;;;;0.97;0.77;;;14.00;63.30;;;;;;5067712;28;20202;-46
2023/02/26 07:52:59;;;;;;;1.80;0.67;;;13.90;63.20;;;;;;5074002;28;20813;-46
2023/02/26 07:55:30;;;;;;;2.07;1.10;;;13.90;63.10;;;;;;5059880;28;20210;-46
2023/02/26 07:57:59;;;;;;;2.33;1.10;;;13.90;63.10;;;;;;5073745;28;20201;-46
2023/02/26 08:00:30;;;;;;;1.20;1.00;;;13.90;63.00;;;;;;5055929;28;20666;-46
2023/02/26 08:03:00;;;;;;;1.90;0.90;;;13.90;62.90;;;;;;5060254;28;20214;-47
2023/02/26 08:05:32;;;;;;;0.70;0.70;;;13.90;62.90;;;;;;5047701;28;20588;-46
2023/02/26 08:08:02;;;;;;;2.30;0.80;;;13.90;62.80;;;;;;5066631;28;20546;-46
2023/02/26 08:10:32;;;;;;;3.87;0.93;;;14.00;62.80;;;;;;5051952;28;20810;-47
2023/02/26 08:13:01;;;;;;;2.70;0.80;;;14.00;62.90;;;;;;5076567;28;20630;-46
2023/02/26 08:15:32;;;;;;;3.70;0.73;;;14.00;62.80;;;;;;5069024;28;20737;-46
2023/02/26 08:18:03;;;;;;;3.97;1.30;;;14.00;62.70;;;;;;5077744;28;20216;-46
2023/02/26 08:20:36;;;;;;;3.00;0.73;;;14.00;62.80;;;;;;5058551;28;20271;-46
2023/02/26 08:23:19;;;;;;;2.20;1.23;;;14.00;62.70;;;;;;5068472;28;20244;-47
2023/02/26 08:25:50;;;;;;;2.67;1.13;;;14.00;62.80;;;;;;5054847;28;20201;-47
2023/02/26 08:28:21;;;;;;;99.77;20.87;;;14.00;62.70;;;;;;5056225;28;20198;-48
2023/02/26 08:30:53;;;;;;;82.80;20.40;;;14.00;63.50;;;;;;5061512;28;20651;-46
2023/02/26 08:33:21;;;;;;;91.43;20.97;;;14.10;63.50;;;;;;5053348;28;20257;-46
2023/02/26 08:35:52;;;;;;;83.73;18.07;;;14.00;64.00;;;;;;5055372;28;20557;-46
2023/02/26 08:38:20;;;;;;;72.00;18.13;;;14.10;64.00;;;;;;5055183;28;20197;-46
2023/02/26 08:40:51;;;;;;;69.80;15.23;;;14.10;63.70;;;;;;5059445;28;20548;-46
2023/02/26 08:43:24;;;;;;;62.77;16.07;;;14.10;63.40;;;;;;5060638;28;20232;-46
2023/02/26 08:45:55;;;;;;;48.37;12.60;;;14.10;63.30;;;;;;5054288;28;20204;-46
2023/02/26 08:48:27;;;;;;;48.90;11.83;;;14.10;63.00;;;;;;5053009;28;20190;-46
2023/02/26 08:51:02;;;;;;;38.13;9.47;;;14.10;62.50;;;;;;5051249;28;20197;-47
2023/02/26 08:53:34;;;;;;;40.53;9.00;;;14.10;62.70;;;;;;5077239;28;20539;-46
2023/02/26 08:56:02;;;;;;;26.23;8.10;;;14.10;62.60;;;;;;5074369;28;20220;-47
2023/02/26 08:58:34;;;;;;;29.17;9.60;;;14.10;62.80;;;;;;5080232;28;20682;-46
2023/02/26 09:01:08;;;;;;;38.20;9.20;;;14.10;62.60;;;;;;5080848;28;20664;-46
2023/02/26 09:03:41;;;;;;;28.60;7.47;;;14.10;62.70;;;;;;5083485;28;20220;-46
2023/02/26 09:06:09;;;;;;;30.33;8.03;;;14.10;62.70;;;;;;5057769;28;20486;-47
2023/02/26 09:08:39;;;;;;;23.80;6.07;;;14.10;62.60;;;;;;5064395;28;20264;-46
2023/02/26 09:11:10;;;;;;;20.97;5.20;;;14.10;62.30;;;;;;5069962;28;20228;-46
2023/02/26 09:13:42;;;;;;;22.47;6.23;;;14.10;62.20;;;;;;5061385;28;20213;-46
2023/02/26 09:16:10;;;;;;;16.23;5.07;;;14.10;62.20;;;;;;5071460;28;20288;-46
2023/02/26 09:18:37;;;;;;;21.33;4.97;;;14.10;62.30;;;;;;5066616;28;20205;-47
2023/02/26 09:21:21;;;;;;;22.57;4.97;;;14.10;62.30;;;;;;5061145;28;20328;-46
2023/02/26 09:23:52;;;;;;;18.03;4.83;;;14.10;62.30;;;;;;5050456;28;20208;-46
2023/02/26 09:26:20;;;;;;;20.70;4.90;;;14.10;62.20;;;;;;5069539;28;20228;-46
2023/02/26 09:28:51;;;;;;;19.10;4.13;;;14.10;62.30;;;;;;5079042;28;20596;-46
2023/02/26 09:31:21;;;;;;;15.53;4.47;;;14.10;62.20;;;;;;5049504;28;20205;-46
2023/02/26 09:33:52;;;;;;;15.23;4.23;;;14.20;62.30;;;;;;5043122;28;20230;-46
2023/02/26 09:36:23;;;;;;;9.30;2.87;;;14.10;62.20;;;;;;5067815;28;20205;-46
2023/02/26 09:38:56;;;;;;;12.33;3.33;;;14.20;61.90;;;;;;5071686;28;20758;-46
2023/02/26 09:41:35;;;;;;;11.50;3.50;;;14.20;62.00;;;;;;5080934;28;20202;-46
2023/02/26 09:44:24;;;;;;;11.80;3.80;;;14.20;62.20;;;;;;5048522;28;20241;-46
2023/02/26 09:47:13;;;;;;;7.93;2.60;;;14.20;62.20;;;;;;5070126;28;20193;-47
2023/02/26 09:50:10;;;;;;;10.17;3.20;;;14.20;62.20;;;;;;5073766;28;20647;-46
2023/02/26 09:53:04;;;;;;;10.00;2.70;;;14.20;62.30;;;;;;5064988;28;20205;-46
2023/02/26 09:55:42;;;;;;;10.60;3.40;;;14.20;62.30;;;;;;5073521;28;20213;-46
2023/02/26 09:58:38;;;;;;;6.70;2.67;;;14.20;62.40;;;;;;5056283;28;20237;-46
2023/02/26 10:01:33;;;;;;;5.30;1.93;;;14.20;62.40;;;;;;5070634;28;20194;-46
2023/02/26 10:04:29;;;;;;;8.03;3.10;;;14.20;62.30;;;;;;5073857;28;20224;-46
2023/02/26 10:07:22;;;;;;;7.57;2.30;;;14.30;62.40;;;;;;5064256;28;20205;-46
2023/02/26 10:10:28;;;;;;;6.20;2.40;;;14.20;62.30;;;;;;5057572;28;20531;-46
2023/02/26 10:13:01;;;;;;;5.93;2.13;;;14.30;62.40;;;;;;5072504;28;20202;-46
2023/02/26 10:16:00;;;;;;;5.87;2.00;;;14.30;62.50;;;;;;5055836;28;20705;-46
2023/02/26 10:18:33;;;;;;;5.70;2.13;;;14.30;62.40;;;;;;5054552;28;20458;-46
2023/02/26 10:21:18;;;;;;;4.93;1.83;;;14.30;62.40;;;;;;5047802;28;20205;-47
2023/02/26 10:24:18;;;;;;;5.97;1.97;;;14.30;62.40;;;;;;5081823;28;20290;-46
2023/02/26 10:27:01;;;;;;;5.00;1.80;;;14.30;62.40;;;;;;5049169;28;20202;-46
2023/02/26 10:29:50;;;;;;;3.70;1.43;;;14.30;62.50;;;;;;5087465;28;20232;-46
2023/02/26 10:32:51;;;;;;;5.60;1.70;;;14.30;62.50;;;;;;5062540;28;20265;-46
2023/02/26 10:35:24;;;;;;;4.00;1.50;;;14.30;62.20;;;;;;5075635;28;20272;-46
2023/02/26 10:38:26;;;;;;;2.43;1.07;;;14.30;62.10;;;;;;5056369;28;20192;-46
2023/02/26 10:41:14;;;;;;;3.13;1.40;;;14.30;61.80;;;;;;5056427;28;20269;-47
2023/02/26 10:43:57;;;;;;;1.77;1.10;;;14.40;61.70;;;;;;5059895;28;20230;-46
2023/02/26 10:47:08;;;;;;;3.23;0.90;;;14.50;61.80;;;;;;5065294;28;20201;-47
2023/02/26 10:50:12;;;;;;;3.87;1.17;;;14.60;61.10;;;;;;5033861;28;20192;-47
2023/02/26 10:52:45;;;;;;;2.83;1.13;;;14.70;61.30;;;;;;5019985;28;20218;-47
2023/02/26 10:55:25;;;;;;;3.30;1.10;;;14.70;60.90;;;;;;5057663;28;20633;-47
2023/02/26 10:58:15;;;;;;;1.77;0.90;;;14.80;60.90;;;;;;5071903;28;20189;-46
2023/02/26 11:00:53;;;;;;;4.47;1.20;;;14.90;60.90;;;;;;5067574;28;20235;-46
2023/02/26 11:03:37;;;;;;;1.60;0.90;;;15.00;60.70;;;;;;5069787;28;20212;-46
2023/02/26 11:06:07;;;;;;;4.10;1.33;;;15.00;60.60;;;;;;5051000;28;20197;-46
2023/02/26 11:08:58;;;;;;;3.93;0.90;;;15.10;60.60;;;;;;5064537;28;20194;-47
2023/02/26 11:11:55;;;;;;;2.90;1.07;;;15.20;60.70;;;;;;5059217;28;20225;-47
2023/02/26 11:14:28;;;;;;;4.93;1.03;;;15.30;60.80;;;;;;5067485;28;20198;-47
2023/02/26 11:17:06;;;;;;;2.53;1.30;;;15.30;60.80;;;;;;5069557;28;20206;-47
2023/02/26 11:19:43;;;;;;;3.83;0.90;;;15.30;60.70;;;;;;5050172;28;20238;-47
2023/02/26 11:22:28;;;;;;;2.77;1.00;;;15.40;60.60;;;;;;5051400;28;20800;-47
2023/02/26 11:24:58;;;;;;;1.53;0.80;;;15.50;60.70;;;;;;5069824;28;20217;-47
2023/02/26 11:27:35;;;;;;;1.83;1.07;;;15.50;60.60;;;;;;5040408;28;20523;-47
2023/02/26 11:30:34;;;;;;;3.07;0.67;;;15.60;60.40;;;;;;5024950;28;20546;-47
2023/02/26 11:33:13;;;;;;;2.80;0.90;;;15.60;60.30;;;;;;5050489;28;20241;-47
2023/02/26 11:35:46;;;;;;;5.33;1.00;;;15.70;60.20;;;;;;5067234;28;20538;-47
2023/02/26 11:38:24;;;;;;;1.77;0.70;;;15.70;59.70;;;;;;5050897;28;20493;-46
2023/02/26 11:41:00;;;;;;;1.13;0.67;;;15.80;59.40;;;;;;5065367;28;20827;-46
2023/02/26 11:43:48;;;;;;;1.03;0.60;;;15.80;59.60;;;;;;5044173;28;20229;-47
2023/02/26 11:46:24;;;;;;;1.37;0.50;;;15.90;59.70;;;;;;5042596;28;20198;-47
2023/02/26 11:48:55;;;;;;;1.73;0.57;;;15.90;59.30;;;;;;5017551;28;20770;-46
2023/02/26 11:51:28;;;;;;;1.27;0.53;;;16.00;59.20;;;;;;5067055;28;20224;-46
2023/02/26 11:54:03;;;;;;;2.07;0.80;;;15.90;58.90;;;;;;5055258;28;20226;-48
2023/02/26 11:56:42;;;;;;;1.73;0.80;;;15.90;59.30;;;;;;5067038;28;20214;-46
2023/02/26 11:59:21;;;;;;;1.37;0.70;;;15.80;59.90;;;;;;5062926;28;20209;-47
2023/02/26 12:01:53;;;;;;;1.00;0.60;;;15.80;59.60;;;;;;5068201;28;20211;-47
2023/02/26 12:04:26;;;;;;;2.03;0.77;;;15.80;59.70;;;;;;5059104;28;20218;-46
2023/02/26 12:06:56;;;;;;;1.63;0.50;;;15.80;60.80;;;;;;5063211;28;20763;-46
2023/02/26 12:09:26;;;;;;;0.83;0.53;;;15.70;60.70;;;;;;5046820;28;20206;-47
2023/02/26 12:12:24;;;;;;;1.57;0.57;;;15.70;60.30;;;;;;5068072;28;20198;-46
2023/02/26 12:15:18;;;;;;;1.80;0.53;;;15.70;61.10;;;;;;5069966;28;20237;-47
2023/02/26 12:18:12;;;;;;;2.97;0.50;;;15.70;61.40;;;;;;5067743;28;20533;-47
2023/02/26 12:21:17;;;;;;;1.10;0.73;;;15.60;60.80;;;;;;5066997;28;20740;-46
2023/02/26 12:24:11;;;;;;;1.33;0.40;;;15.50;61.70;;;;;;5048445;28;20693;-47
2023/02/26 12:27:11;;;;;;;0.83;0.40;;;15.60;61.70;;;;;;5065053;28;20190;-46
2023/02/26 12:30:09;;;;;;;1.40;0.70;;;15.60;61.80;;;;;;5063181;28;20185;-47
2023/02/26 12:33:17;;;;;;;1.67;0.43;;;15.60;61.90;;;;;;4938184;28;20232;-46
2023/02/26 12:36:09;;;;;;;1.00;0.60;;;15.50;61.90;;;;;;5054722;28;20225;-46
2023/02/26 12:39:18;;;;;;;2.43;0.50;;;15.40;62.30;;;;;;5046529;28;20209;-47
2023/02/26 12:42:17;;;;;;;1.20;0.60;;;15.40;62.60;;;;;;5049340;28;20204;-47
2023/02/26 12:44:51;;;;;;;2.30;0.70;;;15.40;62.80;;;;;;5059038;28;20233;-47
2023/02/26 12:47:41;;;;;;;1.37;0.57;;;15.40;62.40;;;;;;5067771;28;20189;-46
2023/02/26 12:50:40;;;;;;;1.37;0.47;;;15.30;62.70;;;;;;5055853;28;20182;-47
2023/02/26 12:53:57;;;;;;;2.30;0.60;;;15.40;62.70;;;;;;5063723;28;20196;-46
2023/02/26 12:56:46;;;;;;;1.67;0.53;;;15.30;62.70;;;;;;5016130;28;20668;-46
2023/02/26 13:00:11;;;;;;;2.23;0.50;;;15.30;63.00;;;;;;5066624;28;20229;-46
2023/02/26 13:03:28;;;;;;;1.93;0.50;;;15.30;63.30;;;;;;5066112;28;20198;-46
2023/02/26 13:06:23;;;;;;;1.30;0.70;;;15.30;63.00;;;;;;5068751;28;20674;-47
2023/02/26 13:09:33;;;;;;;2.40;0.70;;;15.30;63.00;;;;;;5057978;28;20194;-47
2023/02/26 13:12:22;;;;;;;0.60;0.30;;;15.30;63.20;;;;;;5060023;28;20193;-47
2023/02/26 13:15:39;;;;;;;1.07;0.70;;;15.30;62.80;;;;;;5065962;28;20194;-47
2023/02/26 13:18:16;;;;;;;2.50;0.40;;;15.30;63.50;;;;;;5000793;28;20245;-47
2023/02/26 13:20:59;;;;;;;1.77;0.60;;;15.20;63.00;;;;;;5009914;28;20222;-47
2023/02/26 13:23:43;;;;;;;2.10;0.60;;;15.20;63.10;;;;;;5066266;28;20190;-46
2023/02/26 13:26:13;;;;;;;1.83;0.70;;;15.20;63.40;;;;;;5050067;28;20209;-46
2023/02/26 13:29:10;;;;;;;1.37;0.40;;;15.30;63.70;;;;;;5044157;28;20521;-46
2023/02/26 13:31:51;;;;;;;0.90;0.40;;;15.30;63.10;;;;;;5060468;28;20210;-47
2023/02/26 13:34:47;;;;;;;2.10;0.43;;;15.20;63.30;;;;;;5064540;28;20689;-46
2023/02/26 13:37:41;;;;;;;2.43;0.43;;;15.30;63.50;;;;;;5048996;28;20203;-46
2023/02/26 13:40:47;;;;;;;0.37;0.23;;;15.30;63.80;;;;;;5062496;28;20229;-46
2023/02/26 13:43:38;;;;;;;1.37;0.60;;;15.20;63.60;;;;;;4985748;28;20925;-47
2023/02/26 13:46:43;;;;;;;1.37;0.60;;;15.20;64.10;;;;;;4984833;28;20232;-46
2023/02/26 13:49:31;;;;;;;1.90;0.30;;;15.20;64.30;;;;;;4989364;28;20212;-46